createdAt,value
2018-09-29T00:00:29.241Z,10.50
2018-09-29T00:02:57.748Z,10.50
2018-09-29T00:05:26.085Z,10.40
2018-09-29T00:07:54.452Z,10.40
2018-09-29T00:10:22.815Z,10.40
2018-09-29T00:12:51.172Z,10.40
2018-09-29T00:15:19.512Z,10.30
2018-09-29T00:17:47.979Z,10.30
2018-09-29T00:20:16.337Z,10.30
2018-09-29T00:22:44.710Z,10.30
2018-09-29T00:25:13.044Z,10.20
2018-09-29T00:27:41.414Z,10.20
2018-09-29T00:30:09.768Z,10.20
2018-09-29T00:32:38.140Z,10.20
2018-09-29T00:35:06.488Z,10.10
2018-09-29T00:37:34.949Z,10.10
2018-09-29T00:40:03.288Z,10.10
2018-09-29T00:42:31.656Z,10.00
2018-09-29T00:45:00.004Z,10.00
2018-09-29T00:47:28.373Z,10.00
2018-09-29T00:49:56.718Z,10.00
2018-09-29T00:52:25.093Z,10.00
2018-09-29T00:54:53.416Z,10.00
2018-09-29T00:57:21.784Z,10.00
2018-09-29T00:59:50.153Z,10.00
2018-09-29T01:02:18.521Z,10.00
2018-09-29T01:04:46.862Z,10.00
2018-09-29T01:07:15.233Z,10.00
2018-09-29T01:09:43.585Z,10.00
2018-09-29T01:12:11.948Z,10.00
2018-09-29T01:14:40.277Z,10.00
2018-09-29T01:17:08.656Z,10.00
2018-09-29T01:19:37.005Z,10.00
2018-09-29T01:22:05.364Z,10.00
2018-09-29T01:24:33.737Z,10.00
2018-09-29T01:27:02.077Z,10.00
2018-09-29T01:29:30.420Z,10.00
2018-09-29T01:31:58.796Z,10.00
2018-09-29T01:34:27.372Z,10.00
2018-09-29T01:36:55.732Z,10.00
2018-09-29T01:39:24.080Z,9.90
2018-09-29T01:41:52.384Z,9.90
2018-09-29T01:44:20.737Z,9.90
2018-09-29T01:46:49.060Z,9.80
2018-09-29T01:49:17.411Z,9.80
2018-09-29T01:51:45.732Z,9.80
2018-09-29T01:54:14.131Z,9.80
2018-09-29T01:56:42.511Z,9.70
2018-09-29T01:59:10.879Z,9.70
2018-09-29T02:01:39.220Z,9.70
2018-09-29T02:04:07.624Z,9.60
2018-09-29T02:06:35.972Z,9.60
2018-09-29T02:09:04.804Z,9.60
2018-09-29T02:11:33.139Z,9.50
2018-09-29T02:14:01.504Z,9.50
2018-09-29T02:16:29.870Z,9.50
2018-09-29T02:18:58.220Z,9.50
2018-09-29T02:21:26.602Z,9.40
2018-09-29T02:23:54.944Z,9.40
2018-09-29T02:26:23.360Z,9.30
2018-09-29T02:28:51.807Z,9.30
2018-09-29T02:31:20.144Z,9.30
2018-09-29T02:33:48.572Z,9.30
2018-09-29T02:36:16.968Z,9.20
2018-09-29T02:38:45.325Z,9.10
2018-09-29T02:41:13.703Z,9.10
2018-09-29T02:43:42.053Z,9.10
2018-09-29T02:46:10.597Z,9.10
2018-09-29T02:48:38.968Z,9.10
2018-09-29T02:51:07.358Z,9.00
2018-09-29T02:53:35.703Z,9.00
2018-09-29T02:56:04.084Z,9.00
2018-09-29T02:58:32.487Z,9.00
2018-09-29T03:01:00.845Z,8.90
2018-09-29T03:03:29.164Z,8.90
2018-09-29T03:05:57.508Z,8.90
2018-09-29T03:08:25.836Z,8.80
2018-09-29T03:10:54.197Z,8.80
2018-09-29T03:13:22.520Z,8.80
2018-09-29T03:15:50.900Z,8.80
2018-09-29T03:18:19.228Z,8.80
2018-09-29T03:20:47.568Z,8.70
2018-09-29T03:23:15.964Z,8.70
2018-09-29T03:25:44.297Z,8.70
2018-09-29T03:28:12.656Z,8.60
2018-09-29T03:30:41.021Z,8.60
2018-09-29T03:33:09.340Z,8.50
2018-09-29T03:35:37.685Z,8.50
2018-09-29T03:38:06.460Z,8.50
2018-09-29T03:40:34.796Z,8.40
2018-09-29T03:43:03.212Z,8.30
2018-09-29T03:45:31.550Z,8.30
2018-09-29T03:47:59.893Z,8.20
2018-09-29T03:50:28.220Z,8.20
2018-09-29T03:52:56.624Z,8.20
2018-09-29T03:55:24.972Z,8.10
2018-09-29T03:57:53.339Z,8.10
2018-09-29T04:00:21.697Z,8.10
2018-09-29T04:02:50.088Z,8.00
2018-09-29T04:05:18.440Z,8.00
2018-09-29T04:07:46.808Z,8.00
2018-09-29T04:10:15.168Z,8.00
2018-09-29T04:12:43.668Z,7.90
2018-09-29T04:15:12.005Z,7.90
2018-09-29T04:17:40.376Z,7.80
2018-09-29T04:20:08.766Z,7.80
2018-09-29T04:22:37.151Z,7.80
2018-09-29T04:25:05.525Z,7.80
2018-09-29T04:27:33.899Z,7.80
2018-09-29T04:30:02.262Z,7.80
2018-09-29T04:32:30.628Z,7.80
2018-09-29T04:34:58.964Z,7.80
2018-09-29T04:37:27.288Z,7.80
2018-09-29T04:39:55.632Z,7.70
2018-09-29T04:42:23.949Z,7.70
2018-09-29T04:44:52.300Z,7.70
2018-09-29T04:47:20.616Z,7.70
2018-09-29T04:49:48.967Z,7.70
2018-09-29T04:52:17.285Z,7.60
2018-09-29T04:54:45.672Z,7.60
2018-09-29T04:57:13.996Z,7.60
2018-09-29T04:59:42.357Z,7.70
2018-09-29T05:02:10.679Z,7.60
2018-09-29T05:04:39.033Z,7.60
2018-09-29T05:07:07.381Z,7.60
2018-09-29T05:09:35.769Z,7.60
2018-09-29T05:12:04.120Z,7.60
2018-09-29T05:14:32.476Z,7.50
2018-09-29T05:17:00.780Z,7.50
2018-09-29T05:19:29.224Z,7.60
2018-09-29T05:21:57.748Z,7.50
2018-09-29T05:24:26.100Z,7.50
2018-09-29T05:26:54.421Z,7.50
2018-09-29T05:29:23.622Z,7.50
2018-09-29T05:31:52.030Z,7.50
2018-09-29T05:34:20.457Z,7.50
2018-09-29T05:36:48.807Z,7.50
2018-09-29T05:39:17.199Z,7.50
2018-09-29T05:41:45.549Z,7.40
2018-09-29T05:44:13.932Z,7.40
2018-09-29T05:46:42.308Z,7.40
2018-09-29T05:49:10.688Z,7.40
2018-09-29T05:51:39.053Z,7.30
2018-09-29T05:54:07.449Z,7.30
2018-09-29T05:56:35.807Z,7.30
2018-09-29T05:59:04.192Z,7.30
2018-09-29T06:01:32.628Z,7.30
2018-09-29T06:04:01.031Z,7.30
2018-09-29T06:06:31.292Z,7.30
2018-09-29T06:09:00.537Z,7.30
2018-09-29T06:11:28.920Z,7.30
2018-09-29T06:13:57.649Z,7.30
2018-09-29T06:16:25.999Z,7.30
2018-09-29T06:18:54.442Z,7.30
2018-09-29T06:21:22.805Z,7.30
2018-09-29T06:23:51.152Z,7.30
2018-09-29T06:26:19.564Z,7.30
2018-09-29T06:28:47.908Z,7.30
2018-09-29T06:31:16.313Z,7.30
2018-09-29T06:33:44.666Z,7.40
2018-09-29T06:36:13.053Z,7.40
2018-09-29T06:38:41.368Z,7.40
2018-09-29T06:41:09.715Z,7.40
2018-09-29T06:43:38.042Z,7.50
2018-09-29T06:46:06.615Z,7.50
2018-09-29T06:48:34.934Z,7.50
2018-09-29T06:51:03.304Z,7.60
2018-09-29T06:53:31.644Z,7.60
2018-09-29T06:56:00.013Z,7.60
2018-09-29T06:58:28.350Z,7.70
2018-09-29T07:00:56.709Z,7.70
2018-09-29T07:03:25.035Z,7.80
2018-09-29T07:05:53.392Z,7.80
2018-09-29T07:08:21.708Z,7.90
2018-09-29T07:10:50.056Z,7.90
2018-09-29T07:13:18.377Z,7.90
2018-09-29T07:15:46.732Z,8.00
2018-09-29T07:18:15.089Z,8.10
2018-09-29T07:20:44.048Z,8.10
2018-09-29T07:23:12.388Z,8.10
2018-09-29T07:25:40.741Z,8.20
2018-09-29T07:28:09.056Z,8.20
2018-09-29T07:30:37.413Z,8.30
2018-09-29T07:33:05.837Z,8.30
2018-09-29T07:35:34.201Z,8.40
2018-09-29T07:38:02.516Z,8.50
2018-09-29T07:40:30.905Z,8.50
2018-09-29T07:42:59.279Z,8.60
2018-09-29T07:45:27.639Z,8.70
2018-09-29T07:47:56.167Z,8.80
2018-09-29T07:50:24.561Z,8.80
2018-09-29T07:52:52.948Z,8.80
2018-09-29T07:55:21.282Z,8.90
2018-09-29T07:57:49.633Z,9.00
2018-09-29T08:00:17.969Z,9.00
2018-09-29T08:02:46.309Z,9.10
2018-09-29T08:05:14.637Z,9.20
2018-09-29T08:07:42.998Z,9.30
2018-09-29T08:10:11.328Z,9.30
2018-09-29T08:12:39.693Z,9.40
2018-09-29T08:15:08.128Z,9.40
2018-09-29T08:17:36.515Z,9.50
2018-09-29T08:20:04.884Z,9.60
2018-09-29T08:22:33.314Z,9.70
2018-09-29T08:25:01.663Z,9.70
2018-09-29T08:27:30.044Z,9.80
2018-09-29T08:29:58.408Z,9.80
2018-09-29T08:32:26.858Z,9.90
2018-09-29T08:34:55.197Z,9.90
2018-09-29T08:37:23.604Z,10.00
2018-09-29T08:39:51.991Z,10.10
2018-09-29T08:42:20.426Z,10.10
2018-09-29T08:44:48.816Z,10.20
2018-09-29T08:47:17.284Z,10.30
2018-09-29T08:49:45.725Z,10.40
2018-09-29T08:52:14.140Z,10.50
2018-09-29T08:54:42.537Z,10.60
2018-09-29T08:57:11.011Z,10.70
2018-09-29T08:59:39.361Z,10.80
2018-09-29T09:02:07.835Z,10.80
2018-09-29T09:04:36.221Z,10.90
2018-09-29T09:07:05.213Z,11.00
2018-09-29T09:09:33.634Z,11.00
2018-09-29T09:12:02.041Z,11.20
2018-09-29T09:14:30.489Z,11.20
2018-09-29T09:16:59.017Z,11.20
2018-09-29T09:19:27.322Z,11.30
2018-09-29T09:21:55.757Z,11.40
2018-09-29T09:24:24.159Z,11.40
2018-09-29T09:26:52.611Z,11.40
2018-09-29T09:29:21.043Z,11.50
2018-09-29T09:31:49.468Z,11.50
2018-09-29T09:34:17.858Z,11.50
2018-09-29T09:36:46.297Z,11.50
2018-09-29T09:39:14.754Z,11.50
2018-09-29T09:41:43.192Z,11.60
2018-09-29T09:44:11.670Z,11.70
2018-09-29T09:46:40.088Z,11.70
2018-09-29T09:49:08.549Z,11.80
2018-09-29T09:51:36.977Z,11.80
2018-09-29T09:54:05.432Z,11.90
2018-09-29T09:56:33.841Z,11.90
2018-09-29T09:59:02.278Z,12.00
2018-09-29T10:01:34.116Z,12.00
2018-09-29T10:04:02.625Z,12.10
2018-09-29T10:06:31.083Z,12.10
2018-09-29T10:08:59.454Z,12.10
2018-09-29T10:11:27.844Z,12.10
2018-09-29T10:13:56.272Z,12.20
2018-09-29T10:16:24.664Z,12.30
2018-09-29T10:18:53.112Z,12.40
2018-09-29T10:21:21.464Z,12.50
2018-09-29T10:23:49.845Z,12.50
2018-09-29T10:26:18.205Z,12.60
2018-09-29T10:28:47.456Z,12.60
2018-09-29T10:31:15.816Z,12.70
2018-09-29T10:33:44.206Z,12.70
2018-09-29T10:36:12.622Z,12.70
2018-09-29T10:38:40.999Z,12.80
2018-09-29T10:41:09.331Z,12.80
2018-09-29T10:43:37.722Z,12.80
2018-09-29T10:46:06.150Z,12.90
2018-09-29T10:48:34.541Z,13.00
2018-09-29T10:51:02.992Z,13.10
2018-09-29T10:53:31.372Z,13.20
2018-09-29T10:55:59.764Z,13.30
2018-09-29T10:58:28.140Z,13.30
2018-09-29T11:00:56.465Z,13.40
2018-09-29T11:03:24.815Z,13.50
2018-09-29T11:05:53.154Z,13.60
2018-09-29T11:08:21.529Z,13.60
2018-09-29T11:10:49.856Z,13.60
2018-09-29T11:13:18.204Z,13.60
2018-09-29T11:15:46.632Z,13.60
2018-09-29T11:18:15.229Z,13.60
2018-09-29T11:20:43.578Z,13.60
2018-09-29T11:23:11.952Z,13.70
2018-09-29T11:25:40.276Z,13.80
2018-09-29T11:28:08.668Z,13.90
2018-09-29T11:30:37.010Z,13.90
2018-09-29T11:33:05.604Z,13.90
2018-09-29T11:35:33.952Z,13.90
2018-09-29T11:38:02.280Z,13.90
2018-09-29T11:40:30.867Z,14.00
2018-09-29T11:42:59.169Z,14.10
2018-09-29T11:45:27.520Z,14.10
2018-09-29T11:47:55.881Z,14.10
2018-09-29T11:50:24.260Z,14.30
2018-09-29T11:52:52.604Z,14.40
2018-09-29T11:55:21.042Z,14.40
2018-09-29T11:57:49.373Z,14.50
2018-09-29T12:00:17.755Z,14.50
2018-09-29T12:02:46.083Z,14.50
2018-09-29T12:05:14.458Z,14.60
2018-09-29T12:07:43.225Z,14.60
2018-09-29T12:10:11.556Z,14.60
2018-09-29T12:12:39.876Z,14.60
2018-09-29T12:15:08.288Z,14.60
2018-09-29T12:17:36.617Z,14.70
2018-09-29T12:20:05.137Z,14.70
2018-09-29T12:22:33.461Z,14.70
2018-09-29T12:25:01.817Z,14.70
2018-09-29T12:27:30.144Z,14.70
2018-09-29T12:29:58.550Z,14.80
2018-09-29T12:32:26.846Z,14.90
2018-09-29T12:34:55.221Z,14.90
2018-09-29T12:37:23.635Z,15.00
2018-09-29T12:39:51.936Z,15.00
2018-09-29T12:42:20.256Z,15.00
2018-09-29T12:44:48.752Z,15.10
2018-09-29T12:47:17.045Z,15.20
2018-09-29T12:49:45.417Z,15.20
2018-09-29T12:52:13.757Z,15.20
2018-09-29T12:54:42.101Z,15.20
2018-09-29T12:57:10.463Z,15.20
2018-09-29T12:59:38.836Z,15.20
2018-09-29T13:02:07.203Z,15.30
2018-09-29T13:04:35.585Z,15.30
2018-09-29T13:07:03.936Z,15.30
2018-09-29T13:09:32.326Z,15.30
2018-09-29T13:12:00.648Z,15.30
2018-09-29T13:14:29.024Z,15.30
2018-09-29T13:16:57.434Z,15.40
2018-09-29T13:19:25.779Z,15.40
2018-09-29T13:21:54.136Z,15.30
2018-09-29T13:24:22.541Z,15.30
2018-09-29T13:26:50.895Z,15.40
2018-09-29T13:29:19.276Z,15.40
2018-09-29T13:31:47.604Z,15.50
2018-09-29T13:34:15.937Z,15.50
2018-09-29T13:36:44.300Z,15.60
2018-09-29T13:39:12.636Z,15.60
2018-09-29T13:41:40.988Z,15.60
2018-09-29T13:44:09.313Z,15.60
2018-09-29T13:46:37.672Z,15.50
2018-09-29T13:49:06.018Z,15.50
2018-09-29T13:51:34.551Z,15.40
2018-09-29T13:54:03.368Z,15.40
2018-09-29T13:56:31.720Z,15.40
2018-09-29T13:59:00.049Z,15.40
2018-09-29T14:01:28.404Z,15.40
2018-09-29T14:03:56.936Z,15.40
2018-09-29T14:06:25.300Z,15.50
2018-09-29T14:08:53.624Z,15.40
2018-09-29T14:11:21.984Z,15.40
2018-09-29T14:13:50.317Z,15.50
2018-09-29T14:16:18.740Z,15.40
2018-09-29T14:18:47.093Z,15.50
2018-09-29T14:21:15.485Z,15.50
2018-09-29T14:23:43.838Z,15.50
2018-09-29T14:26:12.216Z,15.60
2018-09-29T14:28:40.592Z,15.50
2018-09-29T14:31:09.000Z,15.50
2018-09-29T14:33:37.352Z,15.50
2018-09-29T14:36:05.732Z,15.50
2018-09-29T14:38:34.088Z,15.50
2018-09-29T14:41:02.495Z,15.50
2018-09-29T14:43:30.875Z,15.50
2018-09-29T14:45:59.276Z,15.60
2018-09-29T14:48:27.633Z,15.60
2018-09-29T14:50:56.028Z,15.50
2018-09-29T14:53:24.382Z,15.50
2018-09-29T14:55:52.772Z,15.50
2018-09-29T14:58:21.127Z,15.50
2018-09-29T15:00:49.592Z,15.50
2018-09-29T15:03:17.948Z,15.50
2018-09-29T15:05:46.301Z,15.50
2018-09-29T15:08:14.709Z,15.50
2018-09-29T15:10:43.077Z,15.50
2018-09-29T15:13:11.464Z,15.50
2018-09-29T15:15:39.851Z,15.50
2018-09-29T15:18:08.244Z,15.40
2018-09-29T15:20:36.673Z,15.50
2018-09-29T15:23:05.074Z,15.50
2018-09-29T15:25:33.441Z,15.50
2018-09-29T15:28:01.834Z,15.50
2018-09-29T15:30:30.221Z,15.40
2018-09-29T15:32:58.634Z,15.40
2018-09-29T15:35:27.008Z,15.40
2018-09-29T15:37:55.404Z,15.40
2018-09-29T15:40:23.760Z,15.40
2018-09-29T15:42:52.274Z,15.30
2018-09-29T15:45:20.580Z,15.30
2018-09-29T15:47:48.968Z,15.30
2018-09-29T15:50:17.317Z,15.20
2018-09-29T15:52:45.809Z,15.20
2018-09-29T15:55:14.248Z,15.20
2018-09-29T15:57:42.576Z,15.20
2018-09-29T16:00:10.957Z,15.20
2018-09-29T16:02:39.345Z,15.10
2018-09-29T16:05:07.732Z,15.10
2018-09-29T16:07:36.136Z,15.10
2018-09-29T16:10:04.588Z,15.10
2018-09-29T16:12:32.981Z,15.10
2018-09-29T16:15:01.369Z,15.00
2018-09-29T16:17:29.773Z,15.00
2018-09-29T16:19:58.145Z,14.90
2018-09-29T16:22:26.669Z,14.90
2018-09-29T16:24:55.072Z,14.90
2018-09-29T16:27:23.476Z,14.80
2018-09-29T16:29:51.860Z,14.70
2018-09-29T16:32:20.252Z,14.70
2018-09-29T16:34:48.728Z,14.60
2018-09-29T16:37:17.332Z,14.60
2018-09-29T16:39:45.696Z,14.50
2018-09-29T16:42:14.092Z,14.50
2018-09-29T16:44:42.447Z,14.50
2018-09-29T16:47:10.806Z,14.40
2018-09-29T16:49:39.217Z,14.40
2018-09-29T16:52:07.943Z,14.30
2018-09-29T16:54:36.472Z,14.20
2018-09-29T16:57:04.844Z,14.20
2018-09-29T16:59:33.249Z,14.10
2018-09-29T17:02:01.622Z,14.10
2018-09-29T17:04:30.341Z,14.00
2018-09-29T17:06:58.668Z,13.90
2018-09-29T17:09:27.064Z,13.90
2018-09-29T17:11:55.444Z,13.80
2018-09-29T17:14:23.840Z,13.70
2018-09-29T17:16:52.221Z,13.70
2018-09-29T17:19:20.640Z,13.60
2018-09-29T17:21:49.032Z,13.60
2018-09-29T17:24:17.416Z,13.50
2018-09-29T17:26:45.781Z,13.50
2018-09-29T17:29:14.161Z,13.40
2018-09-29T17:31:42.597Z,13.30
2018-09-29T17:34:11.044Z,13.30
2018-09-29T17:36:39.474Z,13.20
2018-09-29T17:39:09.293Z,13.20
2018-09-29T17:41:37.692Z,13.10
2018-09-29T17:44:06.142Z,13.10
2018-09-29T17:46:34.711Z,13.00
2018-09-29T17:49:03.535Z,13.00
2018-09-29T17:51:31.895Z,13.00
2018-09-29T17:54:00.300Z,12.90
2018-09-29T17:56:28.664Z,12.80
2018-09-29T17:58:57.129Z,12.80
2018-09-29T18:01:25.470Z,12.70
2018-09-29T18:03:53.868Z,12.70
2018-09-29T18:06:22.244Z,12.60
2018-09-29T18:08:50.649Z,12.50
2018-09-29T18:11:19.013Z,12.50
2018-09-29T18:13:47.405Z,12.40
2018-09-29T18:16:15.801Z,12.40
2018-09-29T18:18:44.165Z,12.30
2018-09-29T18:21:12.516Z,12.20
2018-09-29T18:23:40.876Z,12.10
2018-09-29T18:26:09.219Z,12.00
2018-09-29T18:28:37.580Z,12.00
2018-09-29T18:31:05.904Z,11.90
2018-09-29T18:33:34.303Z,11.80
2018-09-29T18:36:02.717Z,11.80
2018-09-29T18:38:31.100Z,11.70
2018-09-29T18:40:59.465Z,11.70
2018-09-29T18:43:27.800Z,11.60
2018-09-29T18:45:56.156Z,11.50
2018-09-29T18:48:24.487Z,11.50
2018-09-29T18:50:52.854Z,11.40
2018-09-29T18:53:21.180Z,11.30
2018-09-29T18:55:49.548Z,11.20
2018-09-29T18:58:17.882Z,11.10
2018-09-29T19:00:46.228Z,11.10
2018-09-29T19:03:14.576Z,11.00
2018-09-29T19:05:42.940Z,10.90
2018-09-29T19:08:11.276Z,10.90
2018-09-29T19:10:39.672Z,10.80
2018-09-29T19:13:08.004Z,10.80
2018-09-29T19:15:36.437Z,10.70
2018-09-29T19:18:04.835Z,10.60
2018-09-29T19:20:33.236Z,10.50
2018-09-29T19:23:01.589Z,10.40
2018-09-29T19:25:29.996Z,10.40
2018-09-29T19:27:58.355Z,10.30
2018-09-29T19:30:26.788Z,10.20
2018-09-29T19:32:55.170Z,10.10
2018-09-29T19:35:23.560Z,10.00
2018-09-29T19:37:51.928Z,10.00
2018-09-29T19:40:20.312Z,9.90
2018-09-29T19:42:48.654Z,9.80
2018-09-29T19:45:17.089Z,9.80
2018-09-29T19:47:45.416Z,9.70
2018-09-29T19:50:13.804Z,9.60
2018-09-29T19:52:42.154Z,9.60
2018-09-29T19:55:10.548Z,9.60
2018-09-29T19:57:38.892Z,9.50
2018-09-29T20:00:07.529Z,9.50
2018-09-29T20:02:35.908Z,9.50
2018-09-29T20:05:04.539Z,9.40
2018-09-29T20:07:32.927Z,9.40
2018-09-29T20:10:01.291Z,9.30
2018-09-29T20:12:29.691Z,9.30
2018-09-29T20:14:58.045Z,9.30
2018-09-29T20:17:26.451Z,9.20
2018-09-29T20:19:54.804Z,9.10
2018-09-29T20:22:23.196Z,9.00
2018-09-29T20:24:51.564Z,8.90
2018-09-29T20:27:19.977Z,8.80
2018-09-29T20:29:48.338Z,8.80
2018-09-29T20:32:16.716Z,8.70
2018-09-29T20:34:45.085Z,8.70
2018-09-29T20:37:13.484Z,8.60
2018-09-29T20:39:41.857Z,8.60
2018-09-29T20:42:10.227Z,8.60
2018-09-29T20:44:38.597Z,8.50
2018-09-29T20:47:07.012Z,8.40
2018-09-29T20:49:35.423Z,8.30
2018-09-29T20:52:03.885Z,8.30
2018-09-29T20:54:32.257Z,8.20
2018-09-29T20:57:00.644Z,8.20
2018-09-29T20:59:29.004Z,8.10
2018-09-29T21:01:57.392Z,8.10
2018-09-29T21:04:25.868Z,8.10
2018-09-29T21:06:54.253Z,8.00
2018-09-29T21:09:22.609Z,8.00
2018-09-29T21:11:51.004Z,7.90
2018-09-29T21:14:19.344Z,7.90
2018-09-29T21:16:47.701Z,7.80
2018-09-29T21:19:16.021Z,7.70
2018-09-29T21:21:44.392Z,7.60
2018-09-29T21:24:12.760Z,7.60
2018-09-29T21:26:41.118Z,7.50
2018-09-29T21:29:09.445Z,7.40
2018-09-29T21:31:37.801Z,7.40
2018-09-29T21:34:06.400Z,7.30
2018-09-29T21:36:34.852Z,7.30
2018-09-29T21:39:03.220Z,7.30
2018-09-29T21:41:31.569Z,7.20
2018-09-29T21:43:59.896Z,7.20
2018-09-29T21:46:28.248Z,7.10
2018-09-29T21:48:56.572Z,7.10
2018-09-29T21:51:24.928Z,7.10
2018-09-29T21:53:53.250Z,7.00
2018-09-29T21:56:21.564Z,7.00
2018-09-29T21:58:49.916Z,6.90
2018-09-29T22:01:23.534Z,6.90
2018-09-29T22:03:51.889Z,6.90
2018-09-29T22:06:20.212Z,6.90
2018-09-29T22:08:48.552Z,6.80
2018-09-29T22:11:16.900Z,6.80
2018-09-29T22:13:45.305Z,6.70
2018-09-29T22:16:13.629Z,6.70
2018-09-29T22:18:41.985Z,6.60
2018-09-29T22:21:10.384Z,6.50
2018-09-29T22:23:38.725Z,6.50
2018-09-29T22:26:07.096Z,6.50
2018-09-29T22:28:35.460Z,6.50
2018-09-29T22:31:03.803Z,6.50
2018-09-29T22:33:32.156Z,6.40
2018-09-29T22:36:00.513Z,6.40
2018-09-29T22:38:29.096Z,6.40
2018-09-29T22:40:57.452Z,6.40
2018-09-29T22:43:25.832Z,6.30
2018-09-29T22:45:54.160Z,6.30
2018-09-29T22:48:22.517Z,6.30
2018-09-29T22:50:50.832Z,6.20
2018-09-29T22:53:19.188Z,6.20
2018-09-29T22:55:47.548Z,6.20
2018-09-29T22:58:15.907Z,6.10
2018-09-29T23:00:44.216Z,6.10
2018-09-29T23:03:12.563Z,6.10
2018-09-29T23:05:40.877Z,6.00
2018-09-29T23:08:09.260Z,6.00
2018-09-29T23:10:37.577Z,6.00
2018-09-29T23:13:05.930Z,6.00
2018-09-29T23:15:34.332Z,5.90
2018-09-29T23:18:02.720Z,5.90
2018-09-29T23:20:31.060Z,5.80
2018-09-29T23:22:59.444Z,5.70
2018-09-29T23:25:27.795Z,5.60
2018-09-29T23:27:56.164Z,5.60
2018-09-29T23:30:24.523Z,5.60
2018-09-29T23:32:52.920Z,5.50
2018-09-29T23:35:21.276Z,5.50
2018-09-29T23:37:49.655Z,5.50
2018-09-29T23:40:18.008Z,5.40
2018-09-29T23:42:46.401Z,5.40
2018-09-29T23:45:14.741Z,5.40
2018-09-29T23:47:43.332Z,5.30
2018-09-29T23:50:11.702Z,5.30
2018-09-29T23:52:40.053Z,5.30
2018-09-29T23:55:08.468Z,5.30
2018-09-29T23:57:36.828Z,5.20
